Time;durP1;ratioP1;P1;durP2;ratioP2;P2;SDS_P1;SDS_P2;PMS_P1;PMS_P2;Temp;Humidity;BMP_temperature;BMP_pressure;BME280_temperature;BME280_humidity;BME280_pressure;Samples;Min_cycle;Max_cycle;Signal;HPM_P1;HPM_P2
2022/02/01 00:02:22;;;;;;;43.45;3.55;;;;;;;;;;4961324;28;20446;-49
2022/02/01 00:34:01;;;;;;;40.25;4.13;;;;;;;;;;4961187;28;20069;-47
2022/02/01 00:36:50;;;;;;;37.80;3.50;;;;;;;;;;4963635;28;20042;-50
2022/02/01 00:39:17;;;;;;;39.95;3.30;;;;;;;;;;4963500;28;20054;-48
2022/02/01 00:41:48;;;;;;;37.67;3.50;;;;;;;;;;4958889;28;20038;-51
2022/02/01 00:44:14;;;;;;;39.60;4.55;;;;;;;;;;4965762;28;20039;-51
2022/02/01 00:46:40;;;;;;;38.65;4.32;;;;;;;;;;4962204;28;20039;-48
2022/02/01 00:49:06;;;;;;;35.95;5.07;;;;;;;;;;4963070;28;20043;-52
2022/02/01 00:51:32;;;;;;;28.23;4.68;;;;;;;;;;4963167;28;20493;-47
2022/02/01 00:53:57;;;;;;;38.50;3.13;;;;;;;;;;4958746;28;20106;-47
2022/02/01 00:56:24;;;;;;;27.15;2.90;;;;;;;;;;4961633;28;20041;-47
2022/02/01 00:58:50;;;;;;;49.60;3.88;;;;;;;;;;4961825;28;20034;-47
2022/02/01 01:01:15;;;;;;;38.42;4.45;;;;;;;;;;4959195;28;20361;-47
2022/02/01 01:03:41;;;;;;;38.90;4.85;;;;;;;;;;4962163;28;20031;-46
2022/02/01 01:06:07;;;;;;;44.25;4.15;;;;;;;;;;4961421;28;20694;-46
2022/02/01 01:08:33;;;;;;;35.15;3.22;;;;;;;;;;4962439;28;20042;-48
2022/02/01 01:10:58;;;;;;;47.33;3.97;;;;;;;;;;4964213;28;20035;-51
2022/02/01 01:16:52;;;;;;;49.05;5.05;;;;;;;;;;4967203;28;20600;-48
2022/02/01 01:53:55;;;;;;;30.23;3.78;;;;;;;;;;4960795;28;20046;-51
2022/02/01 01:56:21;;;;;;;27.73;3.88;;;;;;;;;;4967367;28;20034;-46
2022/02/01 01:58:47;;;;;;;38.42;3.80;;;;;;;;;;4960992;28;20031;-47
2022/02/01 02:01:14;;;;;;;24.70;2.85;;;;;;;;;;4961715;28;20110;-48
2022/02/01 02:03:44;;;;;;;21.40;3.00;;;;;;;;;;4965156;28;20093;-47
2022/02/01 02:06:11;;;;;;;45.08;4.43;;;;;;;;;;4966836;28;20125;-48
2022/02/01 02:08:37;;;;;;;28.60;2.70;;;;;;;;;;4965204;28;20023;-48
2022/02/01 02:11:13;;;;;;;39.22;4.90;;;;;;;;;;4965901;28;20717;-47
2022/02/01 02:16:34;;;;;;;31.08;4.15;;;;;;;;;;4959213;28;20422;-51
2022/02/01 02:19:00;;;;;;;28.02;3.70;;;;;;;;;;4961818;28;20185;-46
2022/02/01 02:21:26;;;;;;;32.30;5.22;;;;;;;;;;4969365;28;20117;-47
2022/02/01 02:23:51;;;;;;;46.25;4.97;;;;;;;;;;4964502;28;20486;-47
2022/02/01 02:26:18;;;;;;;29.73;4.45;;;;;;;;;;4967670;28;20031;-48
2022/02/01 02:28:45;;;;;;;40.15;4.45;;;;;;;;;;4966229;28;20031;-51
2022/02/01 02:31:11;;;;;;;24.25;3.20;;;;;;;;;;4963051;28;20126;-47
2022/02/01 02:33:37;;;;;;;16.35;3.13;;;;;;;;;;4964496;28;20596;-46
2022/02/01 02:36:20;;;;;;;29.80;2.83;;;;;;;;;;4963458;28;20434;-51
2022/02/01 02:38:53;;;;;;;14.32;3.80;;;;;;;;;;4967247;28;20050;-48
2022/02/01 02:46:31;;;;;;;28.65;2.90;;;;;;;;;;4966660;28;20140;-49
2022/02/01 02:48:56;;;;;;;19.80;2.63;;;;;;;;;;4960729;28;20068;-51
2022/02/01 02:51:22;;;;;;;36.10;2.35;;;;;;;;;;4965708;28;20474;-51
2022/02/01 02:53:48;;;;;;;10.80;2.45;;;;;;;;;;4959599;28;20066;-50
2022/02/01 02:56:14;;;;;;;15.48;1.60;;;;;;;;;;4962919;28;20045;-52
2022/02/01 02:58:40;;;;;;;23.88;2.53;;;;;;;;;;4971486;28;20109;-51
2022/02/01 03:01:05;;;;;;;20.83;2.40;;;;;;;;;;4997076;28;20807;-52
2022/02/01 03:03:31;;;;;;;15.57;2.42;;;;;;;;;;4960297;28;20027;-49
2022/02/01 03:05:57;;;;;;;13.57;2.03;;;;;;;;;;4962858;28;20038;-48
2022/02/01 03:08:24;;;;;;;12.20;1.45;;;;;;;;;;4964408;28;20027;-49
2022/02/01 03:10:50;;;;;;;36.15;2.65;;;;;;;;;;4964846;28;20106;-48
2022/02/01 03:13:21;;;;;;;22.92;1.88;;;;;;;;;;4960576;28;20485;-51
2022/02/01 03:15:54;;;;;;;7.95;1.17;;;;;;;;;;4965492;28;20129;-52
2022/02/01 03:21:04;;;;;;;12.05;1.27;;;;;;;;;;4964706;28;20050;-47
2022/02/01 03:23:29;;;;;;;13.75;1.55;;;;;;;;;;4960336;28;20031;-47
2022/02/01 03:25:55;;;;;;;5.45;0.70;;;;;;;;;;4967974;28;20065;-46
2022/02/01 03:28:20;;;;;;;10.27;1.13;;;;;;;;;;4992777;28;20031;-47
2022/02/01 03:30:46;;;;;;;29.27;2.83;;;;;;;;;;4965177;28;20049;-48
2022/02/01 03:33:11;;;;;;;14.32;1.35;;;;;;;;;;4961884;28;20471;-50
2022/02/01 03:35:37;;;;;;;12.40;1.65;;;;;;;;;;4961914;28;20038;-51
2022/02/01 03:38:03;;;;;;;13.10;1.70;;;;;;;;;;4971443;28;20058;-53
2022/02/01 03:40:29;;;;;;;9.43;1.10;;;;;;;;;;4964070;28;20030;-48
2022/02/01 03:42:54;;;;;;;13.18;1.27;;;;;;;;;;4960135;28;20058;-47
2022/02/01 03:45:20;;;;;;;5.85;1.20;;;;;;;;;;4962373;28;20077;-47
2022/02/01 03:47:46;;;;;;;7.10;1.10;;;;;;;;;;4963592;28;20046;-48
2022/02/01 03:50:11;;;;;;;9.80;1.08;;;;;;;;;;4959040;28;20034;-48
2022/02/01 03:52:37;;;;;;;12.20;1.17;;;;;;;;;;4963511;28;20080;-52
2022/02/01 03:55:03;;;;;;;8.38;1.75;;;;;;;;;;4958874;28;20505;-51
2022/02/01 03:57:29;;;;;;;5.95;1.15;;;;;;;;;;4964940;28;20031;-47
2022/02/01 03:59:54;;;;;;;12.32;1.52;;;;;;;;;;4960474;28;20525;-51
2022/02/01 04:02:20;;;;;;;10.52;1.75;;;;;;;;;;4956287;28;20262;-53
2022/02/01 04:04:51;;;;;;;9.02;1.38;;;;;;;;;;4962505;28;20023;-52
2022/02/01 04:07:17;;;;;;;10.15;1.25;;;;;;;;;;4961838;28;20081;-50
2022/02/01 04:09:42;;;;;;;11.40;1.08;;;;;;;;;;4960104;28;20354;-47
2022/02/01 04:12:08;;;;;;;6.43;1.20;;;;;;;;;;4963889;28;20101;-48
2022/02/01 04:14:35;;;;;;;6.78;1.02;;;;;;;;;;4964062;28;20117;-48
2022/02/01 04:17:05;;;;;;;9.52;0.98;;;;;;;;;;4961837;28;20454;-47
2022/02/01 04:19:32;;;;;;;6.40;0.77;;;;;;;;;;4960766;28;20041;-46
2022/02/01 04:22:01;;;;;;;4.88;0.77;;;;;;;;;;4960554;28;20270;-48
2022/02/01 04:24:35;;;;;;;6.03;1.15;;;;;;;;;;4964380;28;20039;-47
2022/02/01 04:27:01;;;;;;;11.20;1.30;;;;;;;;;;4963565;28;20122;-50
2022/02/01 04:29:27;;;;;;;11.15;0.85;;;;;;;;;;4963516;28;20303;-51
2022/02/01 04:31:53;;;;;;;4.70;1.35;;;;;;;;;;4964662;28;20065;-51
2022/02/01 04:34:19;;;;;;;10.18;0.93;;;;;;;;;;4961081;28;20099;-48
2022/02/01 04:36:44;;;;;;;11.02;1.27;;;;;;;;;;4991859;28;20520;-47
2022/02/01 04:39:10;;;;;;;12.23;1.25;;;;;;;;;;4992895;28;20525;-47
2022/02/01 04:41:36;;;;;;;17.55;1.60;;;;;;;;;;4962894;28;20495;-49
2022/02/01 04:44:01;;;;;;;13.70;1.27;;;;;;;;;;4962145;28;20039;-47
2022/02/01 04:46:29;;;;;;;9.85;1.33;;;;;;;;;;4960969;28;20038;-47
2022/02/01 04:48:59;;;;;;;9.10;1.10;;;;;;;;;;4964568;28;20030;-51
2022/02/01 04:51:25;;;;;;;15.13;1.85;;;;;;;;;;4960876;28;20910;-52
2022/02/01 04:53:50;;;;;;;12.68;1.35;;;;;;;;;;4960894;28;20506;-51
2022/02/01 04:56:17;;;;;;;8.63;1.42;;;;;;;;;;4960504;28;20105;-49
2022/02/01 04:58:44;;;;;;;9.80;1.40;;;;;;;;;;4958699;28;20254;-47
2022/02/01 05:01:12;;;;;;;11.02;1.50;;;;;;;;;;4962770;28;20185;-47
2022/02/01 05:03:38;;;;;;;9.77;1.27;;;;;;;;;;4959002;28;20118;-47
2022/02/01 05:06:04;;;;;;;8.65;1.70;;;;;;;;;;4960931;28;20593;-48
2022/02/01 05:08:30;;;;;;;11.88;1.15;;;;;;;;;;4959006;28;20421;-53
2022/02/01 05:10:56;;;;;;;11.20;1.23;;;;;;;;;;4963344;28;20082;-50
2022/02/01 05:16:03;;;;;;;12.18;1.70;;;;;;;;;;4962452;28;20034;-48
2022/02/01 05:18:38;;;;;;;11.35;1.95;;;;;;;;;;4957455;28;20050;-47
2022/02/01 05:21:10;;;;;;;14.73;1.40;;;;;;;;;;4962700;28;20133;-50
2022/02/01 05:23:36;;;;;;;7.53;1.27;;;;;;;;;;4962128;28;20058;-48
2022/02/01 05:26:02;;;;;;;9.82;1.33;;;;;;;;;;4961259;28;20445;-49
2022/02/01 05:28:28;;;;;;;12.52;2.30;;;;;;;;;;4959560;28;20027;-52
2022/02/01 05:30:59;;;;;;;12.27;1.25;;;;;;;;;;4962342;28;20033;-47
2022/02/01 05:33:25;;;;;;;16.50;1.90;;;;;;;;;;4960200;28;20066;-47
2022/02/01 05:35:51;;;;;;;8.80;1.30;;;;;;;;;;4963241;28;20485;-49
2022/02/01 05:38:16;;;;;;;11.05;1.40;;;;;;;;;;4958425;28;20557;-49
2022/02/01 05:40:42;;;;;;;12.85;1.55;;;;;;;;;;4962680;28;20043;-52
2022/02/01 05:43:13;;;;;;;15.50;1.33;;;;;;;;;;4960849;28;20486;-48
2022/02/01 05:45:41;;;;;;;9.48;1.42;;;;;;;;;;4959750;28;20042;-52
2022/02/01 05:48:09;;;;;;;17.75;1.40;;;;;;;;;;4961887;28;20114;-49
2022/02/01 05:50:35;;;;;;;9.00;1.30;;;;;;;;;;4963335;28;20038;-51
2022/02/01 05:53:01;;;;;;;16.30;2.75;;;;;;;;;;4962408;28;20035;-50
2022/02/01 05:55:26;;;;;;;11.02;1.13;;;;;;;;;;4961595;28;20075;-47
2022/02/01 05:57:53;;;;;;;9.57;1.42;;;;;;;;;;4963740;28;20035;-50
2022/02/01 06:00:19;;;;;;;6.63;1.00;;;;;;;;;;4964951;28;20065;-53
2022/02/01 06:02:46;;;;;;;10.95;0.85;;;;;;;;;;4963816;28;20081;-53
2022/02/01 06:05:15;;;;;;;5.43;1.20;;;;;;;;;;4963133;28;20030;-52
2022/02/01 06:07:40;;;;;;;7.35;1.08;;;;;;;;;;4959063;28;20110;-52
2022/02/01 06:10:06;;;;;;;5.65;0.75;;;;;;;;;;4964881;28;20125;-49
2022/02/01 06:12:45;;;;;;;9.75;1.25;;;;;;;;;;4960560;28;20130;-54
2022/02/01 06:15:12;;;;;;;9.40;0.95;;;;;;;;;;4965972;28;23098;-52
2022/02/01 06:17:38;;;;;;;4.32;0.95;;;;;;;;;;4966536;28;20033;-54
2022/02/01 06:20:05;;;;;;;6.75;1.00;;;;;;;;;;4963137;28;20308;-52
2022/02/01 06:22:31;;;;;;;9.20;1.00;;;;;;;;;;4958734;28;20109;-48
2022/02/01 06:24:57;;;;;;;9.32;1.13;;;;;;;;;;4962457;28;20041;-48
2022/02/01 06:27:23;;;;;;;4.50;0.80;;;;;;;;;;4962133;28;20034;-48
2022/02/01 06:29:48;;;;;;;5.03;0.88;;;;;;;;;;4966329;28;20497;-49
2022/02/01 06:32:16;;;;;;;7.32;0.82;;;;;;;;;;4964902;28;20073;-48
2022/02/01 06:34:42;;;;;;;4.72;0.70;;;;;;;;;;4962693;28;20065;-52
2022/02/01 06:37:07;;;;;;;2.33;0.60;;;;;;;;;;4968271;28;20046;-52
2022/02/01 06:39:33;;;;;;;3.65;1.00;;;;;;;;;;4965351;28;20113;-49
2022/02/01 06:41:59;;;;;;;10.48;1.13;;;;;;;;;;4964542;28;20120;-49
2022/02/01 06:44:25;;;;;;;3.33;0.50;;;;;;;;;;4963362;28;20090;-49
2022/02/01 06:46:50;;;;;;;4.20;0.88;;;;;;;;;;4964169;28;20038;-52
2022/02/01 06:49:16;;;;;;;1.92;0.55;;;;;;;;;;4962433;28;20038;-51
2022/02/01 06:51:42;;;;;;;2.25;0.90;;;;;;;;;;4966399;28;20275;-49
2022/02/01 06:54:09;;;;;;;1.95;0.30;;;;;;;;;;4963888;28;20414;-48
2022/02/01 06:56:35;;;;;;;1.95;0.70;;;;;;;;;;4965824;28;20511;-49
2022/02/01 06:59:02;;;;;;;6.45;0.70;;;;;;;;;;4963862;28;20444;-50
2022/02/01 07:01:29;;;;;;;3.45;0.90;;;;;;;;;;4966697;28;20491;-50
2022/02/01 07:03:55;;;;;;;6.32;1.05;;;;;;;;;;4964216;28;20133;-49
2022/02/01 07:06:21;;;;;;;1.00;0.40;;;;;;;;;;4966354;28;20352;-53
2022/02/01 07:08:48;;;;;;;4.35;0.98;;;;;;;;;;4966681;28;20031;-52
2022/02/01 07:11:18;;;;;;;2.88;0.98;;;;;;;;;;4963521;28;20552;-50
2022/02/01 07:13:47;;;;;;;4.72;1.40;;;;;;;;;;4966529;28;20035;-48
2022/02/01 07:16:14;;;;;;;1.67;0.68;;;;;;;;;;4963642;28;20039;-47
2022/02/01 07:18:40;;;;;;;2.03;0.63;;;;;;;;;;4963627;28;20042;-50
2022/02/01 07:21:06;;;;;;;6.55;1.02;;;;;;;;;;4966468;28;20035;-53
2022/02/01 07:23:33;;;;;;;8.52;0.82;;;;;;;;;;4966613;28;20330;-51
2022/02/01 07:25:59;;;;;;;2.20;0.77;;;;;;;;;;4962023;28;20038;-54
2022/02/01 07:28:27;;;;;;;5.13;0.82;;;;;;;;;;4965229;28;20030;-53
2022/02/01 07:30:53;;;;;;;5.47;1.95;;;;;;;;;;4965656;28;20033;-52
2022/02/01 07:33:18;;;;;;;7.22;1.55;;;;;;;;;;4967330;28;20019;-50
2022/02/01 07:35:47;;;;;;;3.42;1.27;;;;;;;;;;4967370;28;20069;-48
2022/02/01 07:38:17;;;;;;;15.70;1.63;;;;;;;;;;4963791;28;20078;-51
2022/02/01 07:40:43;;;;;;;5.55;1.80;;;;;;;;;;4958227;28;20085;-48
2022/02/01 07:43:09;;;;;;;4.38;1.50;;;;;;;;;;4963475;28;20039;-50
2022/02/01 07:45:37;;;;;;;6.75;1.50;;;;;;;;;;4964493;28;20121;-52
2022/02/01 07:48:03;;;;;;;7.43;1.90;;;;;;;;;;4964887;28;20478;-48
2022/02/01 07:50:32;;;;;;;6.32;1.85;;;;;;;;;;4960914;28;20058;-52
2022/02/01 07:52:58;;;;;;;11.35;2.15;;;;;;;;;;4965446;28;20272;-53
2022/02/01 07:55:24;;;;;;;3.72;1.63;;;;;;;;;;4963160;28;20113;-48
2022/02/01 07:57:50;;;;;;;8.57;2.25;;;;;;;;;;4965755;28;20039;-49
2022/02/01 08:00:15;;;;;;;3.03;1.20;;;;;;;;;;4966941;28;20039;-50
2022/02/01 08:02:42;;;;;;;3.55;1.42;;;;;;;;;;4960179;28;20541;-50
2022/02/01 08:05:07;;;;;;;6.50;1.42;;;;;;;;;;4957973;28;20510;-52
2022/02/01 08:07:33;;;;;;;7.38;1.73;;;;;;;;;;4964340;28;20082;-53
2022/02/01 08:10:01;;;;;;;8.73;2.55;;;;;;;;;;4958721;28;20030;-52
2022/02/01 08:20:49;;;;;;;3.15;1.60;;;;;;;;;;4997224;28;20117;-49
2022/02/01 08:23:15;;;;;;;5.47;2.08;;;;;;;;;;4965778;28;20462;-50
2022/02/01 08:25:40;;;;;;;3.58;0.85;;;;;;;;;;4965345;28;20038;-52
2022/02/01 08:28:06;;;;;;;9.98;2.00;;;;;;;;;;4965896;28;20110;-53
2022/02/01 08:30:32;;;;;;;5.68;1.48;;;;;;;;;;4961022;28;20101;-54
2022/02/01 08:32:58;;;;;;;7.85;2.20;;;;;;;;;;4990652;28;20082;-52
2022/02/01 08:35:24;;;;;;;3.67;1.10;;;;;;;;;;4962380;28;20031;-48
2022/02/01 08:37:50;;;;;;;9.45;1.38;;;;;;;;;;4949996;28;20053;-50
2022/02/01 08:40:19;;;;;;;21.80;1.88;;;;;;;;;;4960894;28;20047;-50
2022/02/01 08:42:45;;;;;;;7.88;1.92;;;;;;;;;;4964969;28;20113;-51
2022/02/01 08:45:13;;;;;;;4.32;1.23;;;;;;;;;;4958784;28;20061;-53
2022/02/01 08:47:40;;;;;;;4.60;2.00;;;;;;;;;;4960246;28;20270;-52
2022/02/01 08:50:06;;;;;;;4.47;1.75;;;;;;;;;;4958633;28;20042;-47
2022/02/01 08:52:42;;;;;;;5.10;1.88;;;;;;;;;;4990552;28;20041;-52
2022/02/01 08:55:18;;;;;;;9.02;2.45;;;;;;;;;;4961012;28;20459;-49
2022/02/01 08:57:44;;;;;;;8.43;1.67;;;;;;;;;;4967581;28;20072;-54
2022/02/01 09:00:13;;;;;;;5.43;1.63;;;;;;;;;;4958607;28;20042;-49
2022/02/01 09:02:40;;;;;;;3.72;1.55;;;;;;;;;;4964620;28;20034;-50
2022/02/01 09:05:07;;;;;;;6.60;1.92;;;;;;;;;;4961639;28;20036;-51
2022/02/01 09:07:32;;;;;;;4.38;1.80;;;;;;;;;;4960826;28;20085;-51
2022/02/01 09:09:58;;;;;;;4.28;2.20;;;;;;;;;;4961078;28;20031;-55
2022/02/01 09:12:23;;;;;;;5.85;2.05;;;;;;;;;;4965117;28;20041;-50
2022/02/01 09:14:51;;;;;;;22.90;2.97;;;;;;;;;;4961867;28;20402;-52
2022/02/01 09:17:17;;;;;;;7.00;2.70;;;;;;;;;;4961720;28;20027;-53
2022/02/01 09:19:44;;;;;;;11.00;3.10;;;;;;;;;;4961021;28;20049;-54
2022/02/01 09:22:10;;;;;;;8.88;1.98;;;;;;;;;;4964059;28;20161;-54
2022/02/01 09:24:36;;;;;;;9.00;2.42;;;;;;;;;;4965671;28;20031;-50
2022/02/01 09:27:02;;;;;;;8.10;2.35;;;;;;;;;;4964508;28;20382;-51
2022/02/01 09:29:27;;;;;;;6.03;2.80;;;;;;;;;;4968047;28;20046;-53
2022/02/01 09:31:54;;;;;;;14.57;3.38;;;;;;;;;;4970424;28;20117;-47
2022/02/01 09:34:21;;;;;;;11.60;3.88;;;;;;;;;;4972528;28;20046;-53
2022/02/01 09:36:51;;;;;;;12.13;3.63;;;;;;;;;;4971863;28;20058;-52
2022/02/01 09:39:18;;;;;;;6.78;2.65;;;;;;;;;;4966156;28;20081;-54
2022/02/01 09:41:43;;;;;;;9.13;2.90;;;;;;;;;;4971029;28;20022;-52
2022/02/01 09:44:09;;;;;;;11.43;4.90;;;;;;;;;;4967127;28;20046;-54
2022/02/01 09:46:35;;;;;;;8.63;2.88;;;;;;;;;;4968061;28;20042;-50
2022/02/01 09:49:02;;;;;;;6.28;2.50;;;;;;;;;;4968851;28;20077;-49
2022/02/01 09:51:28;;;;;;;6.68;2.88;;;;;;;;;;4968661;28;20027;-53
2022/02/01 09:53:54;;;;;;;4.70;2.10;;;;;;;;;;4966774;28;20037;-52
2022/02/01 09:56:19;;;;;;;6.30;1.98;;;;;;;;;;4969274;28;20042;-50
2022/02/01 09:58:54;;;;;;;8.75;3.35;;;;;;;;;;4964371;28;20037;-52
2022/02/01 10:01:31;;;;;;;3.17;1.90;;;;;;;;;;4969281;28;20119;-47
2022/02/01 10:04:08;;;;;;;5.40;1.98;;;;;;;;;;4965689;28;20023;-51
2022/02/01 10:06:36;;;;;;;5.53;1.70;;;;;;;;;;4968211;28;20058;-48
2022/02/01 10:09:13;;;;;;;1.60;1.08;;;;;;;;;;4970660;28;20098;-50
2022/02/01 10:11:44;;;;;;;2.75;1.30;;;;;;;;;;4965128;28;20060;-51
2022/02/01 10:14:19;;;;;;;2.28;1.25;;;;;;;;;;4969135;28;20030;-53
2022/02/01 10:16:53;;;;;;;3.10;1.75;;;;;;;;;;4966748;28;20438;-52
2022/02/01 10:19:19;;;;;;;6.63;2.45;;;;;;;;;;4959381;28;20490;-50
2022/02/01 10:21:51;;;;;;;2.65;1.23;;;;;;;;;;4961705;28;20039;-51
2022/02/01 10:24:34;;;;;;;7.70;1.10;;;;;;;;;;4967777;28;20721;-52
2022/02/01 10:27:20;;;;;;;2.10;0.65;;;;;;;;;;4965574;28;20031;-52
2022/02/01 10:30:06;;;;;;;3.22;0.93;;;;;;;;;;4967858;28;20056;-50
2022/02/01 10:33:20;;;;;;;6.25;1.55;;;;;;;;;;4968036;28;20034;-52
2022/02/01 10:36:09;;;;;;;2.88;1.50;;;;;;;;;;4970470;28;20651;-52
2022/02/01 10:38:11;;;;;;;2.08;1.05;;;;;;;;;;4957935;28;20110;-52
2022/02/01 10:40:47;;;;;;;5.05;2.00;;;;;;;;;;4964632;28;20046;-52
2022/02/01 10:43:18;;;;;;;8.02;2.40;;;;;;;;;;4962946;28;20290;-51
2022/02/01 10:45:46;;;;;;;4.05;1.40;;;;;;;;;;4964000;28;20113;-54
2022/02/01 10:48:16;;;;;;;1.33;0.60;;;;;;;;;;4964178;28;20544;-52
2022/02/01 10:50:42;;;;;;;7.40;1.35;;;;;;;;;;4964841;28;20046;-52
2022/02/01 10:53:21;;;;;;;6.55;1.33;;;;;;;;;;4964261;28;20053;-50
2022/02/01 10:55:48;;;;;;;3.97;1.48;;;;;;;;;;4962174;28;20027;-53
2022/02/01 10:58:15;;;;;;;3.08;1.60;;;;;;;;;;4966600;28;20027;-52
2022/02/01 11:00:43;;;;;;;2.20;0.85;;;;;;;;;;4967932;28;20026;-50
2022/02/01 11:03:12;;;;;;;4.15;1.75;;;;;;;;;;4964807;28;20513;-49
2022/02/01 11:05:46;;;;;;;5.25;1.30;;;;;;;;;;4974555;28;20029;-47
2022/02/01 11:08:18;;;;;;;2.88;1.30;;;;;;;;;;4971429;28;20520;-49
2022/02/01 11:10:55;;;;;;;4.82;1.02;;;;;;;;;;4969291;28;20034;-49
2022/02/01 11:13:21;;;;;;;4.43;1.83;;;;;;;;;;4967172;28;20030;-49
2022/02/01 11:16:04;;;;;;;2.58;1.05;;;;;;;;;;4963408;28;20113;-50
2022/02/01 11:18:31;;;;;;;7.35;1.80;;;;;;;;;;4964476;28;20030;-51
2022/02/01 11:21:02;;;;;;;2.25;1.58;;;;;;;;;;4969093;28;20065;-51
2022/02/01 11:23:45;;;;;;;6.28;2.08;;;;;;;;;;4969612;28;20088;-50
2022/02/01 11:26:38;;;;;;;8.15;2.25;;;;;;;;;;4965933;28;20046;-52
2022/02/01 11:31:49;;;;;;;1.85;0.95;;;;;;;;;;4970821;28;20035;-50
2022/02/01 11:34:28;;;;;;;5.22;1.63;;;;;;;;;;4963362;28;20035;-51
2022/02/01 11:36:59;;;;;;;1.45;0.82;;;;;;;;;;4966494;28;20078;-52
2022/02/01 11:39:25;;;;;;;1.83;1.05;;;;;;;;;;4967316;28;20046;-52
2022/02/01 11:41:53;;;;;;;3.80;1.10;;;;;;;;;;4971100;28;20026;-50
2022/02/01 11:44:29;;;;;;;1.77;1.02;;;;;;;;;;4965679;28;20378;-52
2022/02/01 11:47:07;;;;;;;2.67;1.38;;;;;;;;;;4966458;28;20093;-50
2022/02/01 11:49:36;;;;;;;6.03;1.60;;;;;;;;;;4966276;28;20023;-51
2022/02/01 11:52:13;;;;;;;3.90;1.73;;;;;;;;;;4965159;28;20034;-49
2022/02/01 11:54:42;;;;;;;8.60;1.60;;;;;;;;;;4965336;28;20270;-52
2022/02/01 11:57:27;;;;;;;1.48;0.85;;;;;;;;;;4964463;28;20042;-51
2022/02/01 11:59:59;;;;;;;2.50;1.15;;;;;;;;;;4956079;28;20490;-48
2022/02/01 12:02:36;;;;;;;8.07;2.38;;;;;;;;;;4962817;28;20031;-48
2022/02/01 12:05:15;;;;;;;2.13;1.63;;;;;;;;;;4964830;28;20039;-51
2022/02/01 12:07:42;;;;;;;3.75;1.20;;;;;;;;;;4956739;28;20336;-49
2022/02/01 12:10:12;;;;;;;2.20;1.02;;;;;;;;;;4963239;28;20058;-49
2022/02/01 12:12:38;;;;;;;3.10;1.30;;;;;;;;;;4967460;28;20030;-50
2022/02/01 12:15:04;;;;;;;3.38;1.60;;;;;;;;;;4964174;28;20046;-48
2022/02/01 12:17:30;;;;;;;1.45;0.90;;;;;;;;;;4964289;28;20038;-49
2022/02/01 12:20:00;;;;;;;3.15;1.38;;;;;;;;;;4964720;28;20504;-51
2022/02/01 12:22:36;;;;;;;5.22;0.75;;;;;;;;;;4965711;28;20121;-52
2022/02/01 12:25:07;;;;;;;0.73;0.60;;;;;;;;;;4965408;28;20030;-52
2022/02/01 12:27:43;;;;;;;3.22;1.48;;;;;;;;;;4961174;28;20106;-52
2022/02/01 12:30:09;;;;;;;2.50;0.80;;;;;;;;;;4962401;28;20109;-53
2022/02/01 12:32:35;;;;;;;2.25;0.80;;;;;;;;;;4964479;28;20030;-50
2022/02/01 12:35:03;;;;;;;2.15;0.85;;;;;;;;;;4965950;28;20054;-51
2022/02/01 12:37:31;;;;;;;2.08;0.70;;;;;;;;;;4965748;28;20165;-49
2022/02/01 12:40:09;;;;;;;4.75;1.10;;;;;;;;;;4966091;28;20030;-53
2022/02/01 12:42:44;;;;;;;3.05;0.60;;;;;;;;;;4960996;28;20034;-51
2022/02/01 12:47:59;;;;;;;1.17;0.57;;;;;;;;;;4963271;28;20539;-50
2022/02/01 12:50:24;;;;;;;0.85;0.55;;;;;;;;;;4964891;28;20027;-51
2022/02/01 12:52:56;;;;;;;1.15;0.35;;;;;;;;;;4965561;28;20066;-53
2022/02/01 12:55:24;;;;;;;3.35;1.05;;;;;;;;;;4962460;28;20090;-51
2022/02/01 12:57:49;;;;;;;1.10;1.00;;;;;;;;;;4962687;28;20042;-48
2022/02/01 13:00:21;;;;;;;6.20;2.70;;;;;;;;;;4961519;28;20236;-53
2022/02/01 13:02:47;;;;;;;1.70;0.93;;;;;;;;;;4957631;28;20122;-48
2022/02/01 13:05:17;;;;;;;3.25;0.50;;;;;;;;;;4963937;28;20084;-52
2022/02/01 13:07:59;;;;;;;4.35;0.47;;;;;;;;;;4962446;28;20486;-50
2022/02/01 13:14:04;;;;;;;3.38;1.48;;;;;;;;;;4965587;28;20425;-52
2022/02/01 13:21:08;;;;;;;4.35;0.68;;;;;;;;;;4966920;28;20070;-53
2022/02/01 13:23:44;;;;;;;2.38;0.75;;;;;;;;;;4966535;28;20065;-49
2022/02/01 13:26:26;;;;;;;2.67;0.65;;;;;;;;;;4961269;28;20042;-52
2022/02/01 13:28:58;;;;;;;2.70;0.77;;;;;;;;;;4965416;28;20027;-52
2022/02/01 13:31:29;;;;;;;2.85;1.33;;;;;;;;;;4960286;28;20042;-52
2022/02/01 13:34:05;;;;;;;1.52;0.70;;;;;;;;;;4965412;28;20050;-53
2022/02/01 13:36:45;;;;;;;2.13;0.47;;;;;;;;;;4999033;28;20035;-52
2022/02/01 13:39:22;;;;;;;2.65;0.90;;;;;;;;;;4960862;28;20042;-53
2022/02/01 13:42:10;;;;;;;1.48;0.80;;;;;;;;;;4963522;28;20073;-51
2022/02/01 13:44:35;;;;;;;4.63;0.70;;;;;;;;;;4954685;28;20509;-50
2022/02/01 13:47:07;;;;;;;3.42;0.60;;;;;;;;;;4959849;28;20047;-52
2022/02/01 13:49:33;;;;;;;5.57;1.27;;;;;;;;;;4958322;28;20375;-52
2022/02/01 13:51:59;;;;;;;5.85;0.80;;;;;;;;;;4963387;28;20066;-51
2022/02/01 13:54:45;;;;;;;6.90;1.33;;;;;;;;;;4965955;28;20030;-51
2022/02/01 13:57:14;;;;;;;4.07;1.20;;;;;;;;;;4965222;28;20031;-55
2022/02/01 13:59:40;;;;;;;6.00;1.20;;;;;;;;;;4965114;28;20493;-52
2022/02/01 14:02:09;;;;;;;6.15;1.60;;;;;;;;;;4965573;28;20047;-53
2022/02/01 14:04:47;;;;;;;2.83;1.33;;;;;;;;;;4969688;28;20601;-53
2022/02/01 14:10:14;;;;;;;5.85;1.75;;;;;;;;;;4968828;28;20498;-51
2022/02/01 14:32:05;;;;;;;1.60;0.73;;;;;;;;;;4968375;28;20027;-55
2022/02/01 14:34:36;;;;;;;3.08;0.85;;;;;;;;;;4966511;28;20038;-54
2022/02/01 14:37:09;;;;;;;5.15;1.00;;;;;;;;;;4965563;28;20095;-55
2022/02/01 14:45:03;;;;;;;1.42;0.70;;;;;;;;;;4967952;28;20223;-55
2022/02/01 14:47:29;;;;;;;0.90;0.50;;;;;;;;;;4966900;28;20042;-56
2022/02/01 14:49:56;;;;;;;6.32;1.20;;;;;;;;;;4964452;28;20034;-57
2022/02/01 14:52:21;;;;;;;3.80;0.77;;;;;;;;;;4965322;28;20031;-57
2022/02/01 14:54:50;;;;;;;2.53;0.82;;;;;;;;;;4963457;28;20485;-57
2022/02/01 15:13:37;;;;;;;1.98;0.85;;;;;;;;;;4959889;28;20034;-57
2022/02/01 15:16:04;;;;;;;2.80;0.82;;;;;;;;;;4964834;28;20023;-57
2022/02/01 15:18:30;;;;;;;2.08;0.85;;;;;;;;;;4965141;28;20035;-57
2022/02/01 15:20:55;;;;;;;4.30;1.15;;;;;;;;;;4960383;28;20034;-57
2022/02/01 15:23:21;;;;;;;1.23;0.80;;;;;;;;;;4965511;28;20593;-57
2022/02/01 15:25:48;;;;;;;4.15;0.90;;;;;;;;;;4973674;28;20030;-57
2022/02/01 15:28:14;;;;;;;3.75;0.90;;;;;;;;;;4969580;28;20490;-57
2022/02/01 15:30:40;;;;;;;1.80;0.65;;;;;;;;;;4963085;28;20352;-57
2022/02/01 15:33:06;;;;;;;1.27;0.70;;;;;;;;;;4963977;28;20039;-58
2022/02/01 15:35:33;;;;;;;3.63;1.30;;;;;;;;;;4968409;28;20037;-58
2022/02/01 15:37:59;;;;;;;4.50;1.27;;;;;;;;;;4968228;28;20054;-58
2022/02/01 15:59:14;;;;;;;3.28;1.20;;;;;;;;;;4961471;28;20031;-57
2022/02/01 16:01:44;;;;;;;2.70;1.23;;;;;;;;;;4957164;28;20503;-57
2022/02/01 16:04:10;;;;;;;6.90;1.88;;;;;;;;;;4957555;28;20636;-57
2022/02/01 16:06:38;;;;;;;4.13;1.30;;;;;;;;;;4966586;28;20531;-57
2022/02/01 16:09:12;;;;;;;6.35;1.70;;;;;;;;;;4959032;28;20117;-58
2022/02/01 16:11:40;;;;;;;1.73;0.85;;;;;;;;;;4963572;28;20030;-57
2022/02/01 16:14:05;;;;;;;4.20;1.00;;;;;;;;;;4962459;28;20039;-58
2022/02/01 16:16:31;;;;;;;2.08;0.90;;;;;;;;;;4963996;28;20030;-57
2022/02/01 16:18:56;;;;;;;4.63;0.57;;;;;;;;;;4965168;28;20070;-58
2022/02/01 16:21:22;;;;;;;4.75;1.30;;;;;;;;;;4958879;28;20037;-57
2022/02/01 16:23:48;;;;;;;1.83;1.17;;;;;;;;;;4958757;28;20034;-58
2022/02/01 16:26:13;;;;;;;4.35;1.35;;;;;;;;;;4961545;28;20038;-57
2022/02/01 16:28:39;;;;;;;5.05;1.25;;;;;;;;;;4962348;28;20018;-57
2022/02/01 16:31:04;;;;;;;3.28;1.75;;;;;;;;;;4960173;28;20097;-58
2022/02/01 16:33:30;;;;;;;2.80;1.50;;;;;;;;;;4963257;28;20035;-57
2022/02/01 16:35:56;;;;;;;1.48;0.75;;;;;;;;;;4966656;28;20065;-58
2022/02/01 16:38:24;;;;;;;4.00;1.55;;;;;;;;;;4959896;28;20050;-58
2022/02/01 16:40:50;;;;;;;3.85;1.88;;;;;;;;;;4960667;28;20535;-58
2022/02/01 16:43:17;;;;;;;6.60;2.88;;;;;;;;;;4960955;28;20387;-58
2022/02/01 16:45:43;;;;;;;3.55;2.28;;;;;;;;;;4960783;28;20034;-58
2022/02/01 16:48:10;;;;;;;5.05;2.67;;;;;;;;;;4963547;28;20410;-58
2022/02/01 16:50:38;;;;;;;2.38;1.70;;;;;;;;;;4957077;28;20466;-58
2022/02/01 16:53:15;;;;;;;7.93;1.63;;;;;;;;;;4966308;28;20443;-58
2022/02/01 16:55:59;;;;;;;4.38;1.77;;;;;;;;;;4963465;28;20167;-58
2022/02/01 16:58:31;;;;;;;5.13;2.40;;;;;;;;;;4966407;28;20114;-58
2022/02/01 17:00:58;;;;;;;4.53;1.35;;;;;;;;;;4965457;28;20031;-57
2022/02/01 17:03:26;;;;;;;2.70;1.27;;;;;;;;;;4961105;28;20137;-58
2022/02/01 17:05:52;;;;;;;5.57;2.20;;;;;;;;;;4963324;28;20407;-57
2022/02/01 17:08:19;;;;;;;1.83;1.02;;;;;;;;;;4995944;28;20027;-57
2022/02/01 17:10:49;;;;;;;5.45;1.95;;;;;;;;;;4960395;28;20038;-57
2022/02/01 17:13:34;;;;;;;5.18;1.38;;;;;;;;;;4964307;28;20033;-57
2022/02/01 17:19:12;;;;;;;3.45;2.20;;;;;;;;;;4962771;28;20110;-58
2022/02/01 17:21:39;;;;;;;4.90;2.15;;;;;;;;;;4961246;28;20039;-57
2022/02/01 17:24:06;;;;;;;3.17;1.50;;;;;;;;;;4964469;28;20038;-57
2022/02/01 17:26:36;;;;;;;3.42;1.77;;;;;;;;;;4960417;28;20039;-57
2022/02/01 17:29:03;;;;;;;5.28;1.73;;;;;;;;;;4958373;28;20058;-57
2022/02/01 17:31:29;;;;;;;4.15;1.20;;;;;;;;;;4965082;28;20031;-56
2022/02/01 17:33:55;;;;;;;2.40;1.00;;;;;;;;;;4958535;28;20081;-56
2022/02/01 17:36:21;;;;;;;3.33;1.45;;;;;;;;;;4961925;28;20026;-58
2022/02/01 17:38:47;;;;;;;6.70;1.38;;;;;;;;;;4958596;28;20042;-57